Pagrindinis puslapis
METAR-TAF:

METAR-TAF

Oro uostai :

Aidinas, Turkija

platuma: 37-48-54N, ilguma: 27-53-21E, Aukštis: 31 m

Dabartinis oras

Ataskaita buvo paskelbta 1 valandą ir 13 minutes, ne 05:50 UTC
Ramus vėjas
Temperatūra 22°C
Drėgmė 94%
Slėgis 1014 hPa
Matomumas: 2000 m
rūkana

METAR: LTBD 180550Z 00000KT 5000 2000E BR NSC 22/21 Q1014

Laikas: 10:03 (07:03 UTC)

Prognozė

Ataskaita buvo paskelbta 2 valandos ir 23 minutes, ne 04:40 UTC
Prognozė galioja nuo 18 metu 06 UTC su 18 metu 15 UTC
Vėjas 2 kt nuo kintamojo kryptimis
Matomumas: 1200 m
Rūkas lopais
Tapsmas
nuo 18 metu 06 UTC su 18 metu 09 UTC
Matomumas 10 km arba daugiau
Mažai debesys ne aukštis 3500 ft
Tapsmas
nuo 18 metu 09 UTC su 18 metu 12 UTC
Vėjas 13 kt iš Vakarų

TAF: LTBD 180440Z 1806/1815 VRB02KT 1200 BCFG NSC BECMG 1806/1809 9999 NSW FEW035 BECMG 1809/1812 27013KT

Orai ataskaitas ir orų prognozės (METAR, TAF).

turimą stotys yra geltonos ir raudonos taškus žemėlapyje.

Perkelti pele per norėdami pamatyti stoties vardą.

Tada spustelėkite, norėdami matyti oro stebėjimo ir prognozės.

Norėdami pakeisti žemėlapį: spustelėkite ant žalios mygtukų su juodo kryžiaus žemyn,; žalią mygtuką su brūkšneliu, jei norite nutolinti; arba žalių rodyklių gretimoms žemėlapius.


METAR-TAF: